sensor_id;sensor_type;location;lat;lon;timestamp;P1;durP1;ratioP1;P2;durP2;ratioP2
76228;SDS011;65021;53.174;18.160;2023-11-21T00:00:40;20.00;;;9.20;;
76228;SDS011;65021;53.174;18.160;2023-11-21T00:03:27;16.70;;;8.10;;
76228;SDS011;65021;53.174;18.160;2023-11-21T00:05:54;16.90;;;9.20;;
76228;SDS011;65021;53.174;18.160;2023-11-21T00:08:21;21.00;;;10.10;;
76228;SDS011;65021;53.174;18.160;2023-11-21T00:10:47;20.30;;;9.10;;
76228;SDS011;65021;53.174;18.160;2023-11-21T00:13:14;19.20;;;9.20;;
76228;SDS011;65021;53.174;18.160;2023-11-21T00:15:41;19.40;;;9.70;;
76228;SDS011;65021;53.174;18.160;2023-11-21T00:18:07;19.20;;;9.70;;
76228;SDS011;65021;53.174;18.160;2023-11-21T00:20:34;16.40;;;8.50;;
76228;SDS011;65021;53.174;18.160;2023-11-21T00:23:01;21.10;;;10.70;;
76228;SDS011;65021;53.174;18.160;2023-11-21T00:25:28;19.30;;;9.40;;
76228;SDS011;65021;53.174;18.160;2023-11-21T00:27:55;20.30;;;9.30;;
76228;SDS011;65021;53.174;18.160;2023-11-21T00:30:21;21.10;;;10.80;;
76228;SDS011;65021;53.174;18.160;2023-11-21T00:32:48;19.90;;;9.60;;
76228;SDS011;65021;53.174;18.160;2023-11-21T00:35:15;16.00;;;6.80;;
76228;SDS011;65021;53.174;18.160;2023-11-21T00:37:42;18.00;;;8.80;;
76228;SDS011;65021;53.174;18.160;2023-11-21T00:40:09;18.60;;;9.80;;
76228;SDS011;65021;53.174;18.160;2023-11-21T00:42:36;20.40;;;9.40;;
76228;SDS011;65021;53.174;18.160;2023-11-21T00:45:03;20.30;;;9.80;;
76228;SDS011;65021;53.174;18.160;2023-11-21T00:47:30;18.40;;;10.00;;
76228;SDS011;65021;53.174;18.160;2023-11-21T00:49:56;21.20;;;9.80;;
76228;SDS011;65021;53.174;18.160;2023-11-21T00:52:23;18.60;;;8.70;;
76228;SDS011;65021;53.174;18.160;2023-11-21T00:54:49;18.60;;;9.00;;
76228;SDS011;65021;53.174;18.160;2023-11-21T00:57:16;16.90;;;9.10;;
76228;SDS011;65021;53.174;18.160;2023-11-21T00:59:42;19.40;;;9.80;;
76228;SDS011;65021;53.174;18.160;2023-11-21T01:02:09;21.00;;;9.90;;
76228;SDS011;65021;53.174;18.160;2023-11-21T01:04:36;18.60;;;9.20;;
76228;SDS011;65021;53.174;18.160;2023-11-21T01:07:04;19.30;;;8.80;;
76228;SDS011;65021;53.174;18.160;2023-11-21T01:09:31;21.00;;;10.10;;
76228;SDS011;65021;53.174;18.160;2023-11-21T01:11:58;14.50;;;6.00;;
76228;SDS011;65021;53.174;18.160;2023-11-21T01:14:26;12.30;;;6.00;;
76228;SDS011;65021;53.174;18.160;2023-11-21T01:16:53;23.20;;;12.10;;
76228;SDS011;65021;53.174;18.160;2023-11-21T01:19:20;18.20;;;10.70;;
76228;SDS011;65021;53.174;18.160;2023-11-21T01:21:46;18.60;;;9.20;;
76228;SDS011;65021;53.174;18.160;2023-11-21T01:24:13;19.50;;;9.60;;
76228;SDS011;65021;53.174;18.160;2023-11-21T01:26:39;22.10;;;11.50;;
76228;SDS011;65021;53.174;18.160;2023-11-21T01:29:06;24.10;;;11.30;;
76228;SDS011;65021;53.174;18.160;2023-11-21T01:31:33;21.80;;;11.10;;
76228;SDS011;65021;53.174;18.160;2023-11-21T01:34:00;21.90;;;11.20;;
76228;SDS011;65021;53.174;18.160;2023-11-21T01:36:30;22.90;;;10.60;;
76228;SDS011;65021;53.174;18.160;2023-11-21T01:38:58;21.50;;;9.70;;
76228;SDS011;65021;53.174;18.160;2023-11-21T01:41:26;15.70;;;7.70;;
76228;SDS011;65021;53.174;18.160;2023-11-21T01:43:53;21.50;;;10.10;;
76228;SDS011;65021;53.174;18.160;2023-11-21T01:46:20;21.20;;;9.90;;
76228;SDS011;65021;53.174;18.160;2023-11-21T01:48:48;21.80;;;10.70;;
76228;SDS011;65021;53.174;18.160;2023-11-21T01:51:16;22.80;;;11.10;;
76228;SDS011;65021;53.174;18.160;2023-11-21T01:53:44;18.00;;;8.40;;
76228;SDS011;65021;53.174;18.160;2023-11-21T01:56:12;22.40;;;10.60;;
76228;SDS011;65021;53.174;18.160;2023-11-21T01:58:40;16.60;;;7.80;;
76228;SDS011;65021;53.174;18.160;2023-11-21T02:01:07;17.80;;;8.90;;
76228;SDS011;65021;53.174;18.160;2023-11-21T02:03:35;22.50;;;9.60;;
76228;SDS011;65021;53.174;18.160;2023-11-21T02:06:01;20.50;;;11.00;;
76228;SDS011;65021;53.174;18.160;2023-11-21T02:08:28;24.90;;;10.20;;
76228;SDS011;65021;53.174;18.160;2023-11-21T02:10:54;23.20;;;10.90;;
76228;SDS011;65021;53.174;18.160;2023-11-21T02:13:21;23.70;;;11.40;;
76228;SDS011;65021;53.174;18.160;2023-11-21T02:15:47;21.50;;;10.60;;
76228;SDS011;65021;53.174;18.160;2023-11-21T02:18:16;22.80;;;10.20;;
76228;SDS011;65021;53.174;18.160;2023-11-21T02:20:44;20.70;;;10.20;;
76228;SDS011;65021;53.174;18.160;2023-11-21T02:23:10;21.60;;;10.20;;
76228;SDS011;65021;53.174;18.160;2023-11-21T02:25:39;22.40;;;10.50;;
76228;SDS011;65021;53.174;18.160;2023-11-21T02:28:05;21.90;;;10.80;;
76228;SDS011;65021;53.174;18.160;2023-11-21T02:30:33;21.30;;;10.10;;
76228;SDS011;65021;53.174;18.160;2023-11-21T02:33:00;19.40;;;8.60;;
76228;SDS011;65021;53.174;18.160;2023-11-21T02:35:27;24.10;;;10.70;;
76228;SDS011;65021;53.174;18.160;2023-11-21T02:37:54;23.50;;;9.40;;
76228;SDS011;65021;53.174;18.160;2023-11-21T02:40:21;19.80;;;9.60;;
76228;SDS011;65021;53.174;18.160;2023-11-21T02:42:48;19.60;;;10.60;;
76228;SDS011;65021;53.174;18.160;2023-11-21T02:45:14;20.80;;;9.60;;
76228;SDS011;65021;53.174;18.160;2023-11-21T02:50:11;22.30;;;9.90;;
76228;SDS011;65021;53.174;18.160;2023-11-21T02:52:38;22.60;;;10.30;;
76228;SDS011;65021;53.174;18.160;2023-11-21T02:55:06;21.90;;;10.20;;
76228;SDS011;65021;53.174;18.160;2023-11-21T02:57:35;20.30;;;10.50;;
76228;SDS011;65021;53.174;18.160;2023-11-21T03:00:02;18.20;;;8.20;;
76228;SDS011;65021;53.174;18.160;2023-11-21T03:02:29;21.90;;;9.30;;
76228;SDS011;65021;53.174;18.160;2023-11-21T03:04:56;24.20;;;12.30;;
76228;SDS011;65021;53.174;18.160;2023-11-21T03:07:22;26.60;;;12.90;;
76228;SDS011;65021;53.174;18.160;2023-11-21T03:09:49;19.30;;;9.80;;
76228;SDS011;65021;53.174;18.160;2023-11-21T03:12:15;23.30;;;10.70;;
76228;SDS011;65021;53.174;18.160;2023-11-21T03:14:42;22.00;;;11.80;;
76228;SDS011;65021;53.174;18.160;2023-11-21T03:17:08;24.50;;;10.90;;
76228;SDS011;65021;53.174;18.160;2023-11-21T03:19:35;25.10;;;10.50;;
76228;SDS011;65021;53.174;18.160;2023-11-21T03:22:01;18.80;;;8.70;;
76228;SDS011;65021;53.174;18.160;2023-11-21T03:24:28;21.10;;;10.50;;
76228;SDS011;65021;53.174;18.160;2023-11-21T03:26:55;25.40;;;11.20;;
76228;SDS011;65021;53.174;18.160;2023-11-21T03:29:21;27.20;;;11.00;;
76228;SDS011;65021;53.174;18.160;2023-11-21T03:31:48;24.80;;;11.70;;
76228;SDS011;65021;53.174;18.160;2023-11-21T03:34:16;19.70;;;9.00;;
76228;SDS011;65021;53.174;18.160;2023-11-21T03:36:46;26.00;;;11.50;;
76228;SDS011;65021;53.174;18.160;2023-11-21T03:39:13;22.10;;;10.90;;
76228;SDS011;65021;53.174;18.160;2023-11-21T03:41:39;23.10;;;9.80;;
76228;SDS011;65021;53.174;18.160;2023-11-21T03:44:06;27.40;;;13.20;;
76228;SDS011;65021;53.174;18.160;2023-11-21T03:46:33;21.80;;;9.90;;
76228;SDS011;65021;53.174;18.160;2023-11-21T03:48:59;23.70;;;10.40;;
76228;SDS011;65021;53.174;18.160;2023-11-21T03:51:26;26.40;;;10.60;;
76228;SDS011;65021;53.174;18.160;2023-11-21T03:53:52;20.00;;;9.10;;
76228;SDS011;65021;53.174;18.160;2023-11-21T03:56:19;22.20;;;10.50;;
76228;SDS011;65021;53.174;18.160;2023-11-21T03:58:49;14.60;;;5.60;;
76228;SDS011;65021;53.174;18.160;2023-11-21T04:01:22;24.20;;;10.90;;
76228;SDS011;65021;53.174;18.160;2023-11-21T04:03:49;19.30;;;9.60;;
76228;SDS011;65021;53.174;18.160;2023-11-21T04:06:17;14.80;;;6.90;;
76228;SDS011;65021;53.174;18.160;2023-11-21T04:08:44;24.80;;;10.10;;
76228;SDS011;65021;53.174;18.160;2023-11-21T04:11:11;21.80;;;8.90;;
76228;SDS011;65021;53.174;18.160;2023-11-21T04:13:39;24.50;;;10.50;;
76228;SDS011;65021;53.174;18.160;2023-11-21T04:16:06;19.70;;;8.90;;
76228;SDS011;65021;53.174;18.160;2023-11-21T04:18:35;21.30;;;9.90;;
76228;SDS011;65021;53.174;18.160;2023-11-21T04:21:03;16.50;;;6.60;;
76228;SDS011;65021;53.174;18.160;2023-11-21T04:23:30;17.90;;;9.00;;
76228;SDS011;65021;53.174;18.160;2023-11-21T04:25:58;23.30;;;9.60;;
76228;SDS011;65021;53.174;18.160;2023-11-21T04:28:25;20.70;;;9.30;;
76228;SDS011;65021;53.174;18.160;2023-11-21T04:30:51;22.20;;;9.00;;
76228;SDS011;65021;53.174;18.160;2023-11-21T04:33:18;20.00;;;8.60;;
76228;SDS011;65021;53.174;18.160;2023-11-21T04:35:45;19.70;;;9.20;;
76228;SDS011;65021;53.174;18.160;2023-11-21T04:38:12;17.20;;;8.40;;
76228;SDS011;65021;53.174;18.160;2023-11-21T04:40:39;19.50;;;8.70;;
76228;SDS011;65021;53.174;18.160;2023-11-21T04:43:05;21.60;;;8.50;;
76228;SDS011;65021;53.174;18.160;2023-11-21T04:45:32;22.30;;;8.60;;
76228;SDS011;65021;53.174;18.160;2023-11-21T04:47:58;23.80;;;10.10;;
76228;SDS011;65021;53.174;18.160;2023-11-21T04:50:25;17.80;;;8.80;;
76228;SDS011;65021;53.174;18.160;2023-11-21T04:52:53;21.20;;;9.30;;
76228;SDS011;65021;53.174;18.160;2023-11-21T04:55:20;15.10;;;7.20;;
76228;SDS011;65021;53.174;18.160;2023-11-21T04:57:47;19.00;;;7.90;;
76228;SDS011;65021;53.174;18.160;2023-11-21T05:00:13;19.30;;;7.60;;
76228;SDS011;65021;53.174;18.160;2023-11-21T05:02:42;18.80;;;7.20;;
76228;SDS011;65021;53.174;18.160;2023-11-21T05:05:10;24.80;;;10.10;;
76228;SDS011;65021;53.174;18.160;2023-11-21T05:07:37;18.90;;;7.80;;
76228;SDS011;65021;53.174;18.160;2023-11-21T05:10:07;24.10;;;9.80;;
76228;SDS011;65021;53.174;18.160;2023-11-21T05:12:38;22.70;;;9.00;;
76228;SDS011;65021;53.174;18.160;2023-11-21T05:15:04;21.10;;;9.90;;
76228;SDS011;65021;53.174;18.160;2023-11-21T05:17:40;25.00;;;10.10;;
76228;SDS011;65021;53.174;18.160;2023-11-21T05:20:11;25.90;;;10.30;;
76228;SDS011;65021;53.174;18.160;2023-11-21T05:22:40;23.80;;;10.80;;
76228;SDS011;65021;53.174;18.160;2023-11-21T05:25:08;25.70;;;11.00;;
76228;SDS011;65021;53.174;18.160;2023-11-21T05:27:35;23.40;;;10.10;;
76228;SDS011;65021;53.174;18.160;2023-11-21T05:30:02;30.90;;;11.30;;
76228;SDS011;65021;53.174;18.160;2023-11-21T05:32:32;29.00;;;11.10;;
76228;SDS011;65021;53.174;18.160;2023-11-21T05:35:00;24.90;;;9.60;;
76228;SDS011;65021;53.174;18.160;2023-11-21T05:37:27;20.10;;;9.00;;
76228;SDS011;65021;53.174;18.160;2023-11-21T05:39:53;19.80;;;9.10;;
76228;SDS011;65021;53.174;18.160;2023-11-21T05:42:23;22.00;;;10.60;;
76228;SDS011;65021;53.174;18.160;2023-11-21T05:44:50;30.00;;;11.30;;
76228;SDS011;65021;53.174;18.160;2023-11-21T05:47:16;26.40;;;11.00;;
76228;SDS011;65021;53.174;18.160;2023-11-21T05:49:44;25.80;;;9.50;;
76228;SDS011;65021;53.174;18.160;2023-11-21T05:52:11;26.80;;;10.20;;
76228;SDS011;65021;53.174;18.160;2023-11-21T05:54:38;24.60;;;11.00;;
76228;SDS011;65021;53.174;18.160;2023-11-21T05:57:04;20.50;;;9.00;;
76228;SDS011;65021;53.174;18.160;2023-11-21T05:59:31;21.10;;;9.00;;
76228;SDS011;65021;53.174;18.160;2023-11-21T06:01:57;21.50;;;9.40;;
76228;SDS011;65021;53.174;18.160;2023-11-21T06:04:25;22.60;;;9.30;;
76228;SDS011;65021;53.174;18.160;2023-11-21T06:06:52;26.50;;;10.10;;
76228;SDS011;65021;53.174;18.160;2023-11-21T06:09:19;23.40;;;9.20;;
76228;SDS011;65021;53.174;18.160;2023-11-21T06:11:47;23.30;;;9.20;;
76228;SDS011;65021;53.174;18.160;2023-11-21T06:14:13;19.10;;;9.00;;
76228;SDS011;65021;53.174;18.160;2023-11-21T06:16:44;19.30;;;8.70;;
76228;SDS011;65021;53.174;18.160;2023-11-21T06:19:11;21.70;;;8.00;;
76228;SDS011;65021;53.174;18.160;2023-11-21T06:21:38;19.60;;;8.80;;
76228;SDS011;65021;53.174;18.160;2023-11-21T06:24:05;21.70;;;8.80;;
76228;SDS011;65021;53.174;18.160;2023-11-21T06:26:33;16.80;;;7.50;;
76228;SDS011;65021;53.174;18.160;2023-11-21T06:29:01;18.80;;;8.30;;
76228;SDS011;65021;53.174;18.160;2023-11-21T06:31:29;19.60;;;8.70;;
76228;SDS011;65021;53.174;18.160;2023-11-21T06:33:56;14.80;;;7.60;;
76228;SDS011;65021;53.174;18.160;2023-11-21T06:36:23;17.70;;;8.40;;
76228;SDS011;65021;53.174;18.160;2023-11-21T06:38:50;17.20;;;7.20;;
76228;SDS011;65021;53.174;18.160;2023-11-21T06:41:17;16.20;;;5.40;;
76228;SDS011;65021;53.174;18.160;2023-11-21T06:43:43;18.60;;;8.40;;
76228;SDS011;65021;53.174;18.160;2023-11-21T06:46:12;17.50;;;6.70;;
76228;SDS011;65021;53.174;18.160;2023-11-21T06:48:43;14.90;;;5.80;;
76228;SDS011;65021;53.174;18.160;2023-11-21T06:51:10;18.30;;;8.30;;
76228;SDS011;65021;53.174;18.160;2023-11-21T06:53:37;19.20;;;8.40;;
76228;SDS011;65021;53.174;18.160;2023-11-21T06:56:03;11.70;;;5.70;;
76228;SDS011;65021;53.174;18.160;2023-11-21T06:58:32;12.90;;;6.10;;
76228;SDS011;65021;53.174;18.160;2023-11-21T07:00:58;16.20;;;7.50;;
76228;SDS011;65021;53.174;18.160;2023-11-21T07:03:25;17.70;;;6.40;;
76228;SDS011;65021;53.174;18.160;2023-11-21T07:05:52;13.80;;;5.50;;
76228;SDS011;65021;53.174;18.160;2023-11-21T07:08:19;15.00;;;6.60;;
76228;SDS011;65021;53.174;18.160;2023-11-21T07:10:45;16.70;;;6.70;;
76228;SDS011;65021;53.174;18.160;2023-11-21T07:13:13;13.90;;;6.50;;
76228;SDS011;65021;53.174;18.160;2023-11-21T07:15:40;16.50;;;7.30;;
76228;SDS011;65021;53.174;18.160;2023-11-21T07:18:07;13.90;;;6.20;;
76228;SDS011;65021;53.174;18.160;2023-11-21T07:20:34;11.90;;;5.10;;
76228;SDS011;65021;53.174;18.160;2023-11-21T07:23:00;15.90;;;6.80;;
76228;SDS011;65021;53.174;18.160;2023-11-21T07:25:27;14.50;;;6.40;;
76228;SDS011;65021;53.174;18.160;2023-11-21T07:27:53;13.20;;;5.90;;
76228;SDS011;65021;53.174;18.160;2023-11-21T07:30:21;10.70;;;5.20;;
76228;SDS011;65021;53.174;18.160;2023-11-21T07:32:49;12.80;;;5.60;;
76228;SDS011;65021;53.174;18.160;2023-11-21T07:35:15;12.60;;;5.90;;
76228;SDS011;65021;53.174;18.160;2023-11-21T07:37:42;14.50;;;5.50;;
76228;SDS011;65021;53.174;18.160;2023-11-21T07:40:09;11.90;;;5.00;;
76228;SDS011;65021;53.174;18.160;2023-11-21T07:42:37;11.70;;;5.20;;
76228;SDS011;65021;53.174;18.160;2023-11-21T07:45:04;10.00;;;5.40;;
76228;SDS011;65021;53.174;18.160;2023-11-21T07:47:33;14.50;;;6.20;;
76228;SDS011;65021;53.174;18.160;2023-11-21T07:50:01;10.70;;;5.60;;
76228;SDS011;65021;53.174;18.160;2023-11-21T07:52:30;12.10;;;5.10;;
76228;SDS011;65021;53.174;18.160;2023-11-21T07:54:56;13.60;;;5.90;;
76228;SDS011;65021;53.174;18.160;2023-11-21T07:57:23;13.30;;;5.80;;
76228;SDS011;65021;53.174;18.160;2023-11-21T07:59:49;10.30;;;4.90;;
76228;SDS011;65021;53.174;18.160;2023-11-21T08:02:16;11.30;;;5.10;;
76228;SDS011;65021;53.174;18.160;2023-11-21T08:04:44;11.40;;;5.40;;
76228;SDS011;65021;53.174;18.160;2023-11-21T08:07:11;14.30;;;6.20;;
76228;SDS011;65021;53.174;18.160;2023-11-21T08:09:37;10.20;;;4.50;;
76228;SDS011;65021;53.174;18.160;2023-11-21T08:12:04;11.60;;;5.60;;
76228;SDS011;65021;53.174;18.160;2023-11-21T08:14:31;11.30;;;5.00;;
76228;SDS011;65021;53.174;18.160;2023-11-21T08:16:57;15.80;;;6.00;;
76228;SDS011;65021;53.174;18.160;2023-11-21T08:19:25;11.70;;;4.30;;
76228;SDS011;65021;53.174;18.160;2023-11-21T08:21:51;10.80;;;4.40;;
76228;SDS011;65021;53.174;18.160;2023-11-21T08:24:21;11.60;;;5.40;;
76228;SDS011;65021;53.174;18.160;2023-11-21T08:26:48;11.00;;;5.00;;
76228;SDS011;65021;53.174;18.160;2023-11-21T08:29:14;9.60;;;4.60;;
76228;SDS011;65021;53.174;18.160;2023-11-21T08:31:41;10.10;;;4.90;;
76228;SDS011;65021;53.174;18.160;2023-11-21T08:34:08;12.30;;;5.60;;
76228;SDS011;65021;53.174;18.160;2023-11-21T08:36:34;9.50;;;4.10;;
76228;SDS011;65021;53.174;18.160;2023-11-21T08:39:01;9.50;;;4.50;;
76228;SDS011;65021;53.174;18.160;2023-11-21T08:41:28;12.10;;;5.10;;
76228;SDS011;65021;53.174;18.160;2023-11-21T08:43:54;9.40;;;5.00;;
76228;SDS011;65021;53.174;18.160;2023-11-21T08:46:22;11.30;;;4.50;;
76228;SDS011;65021;53.174;18.160;2023-11-21T08:48:49;9.60;;;4.90;;
76228;SDS011;65021;53.174;18.160;2023-11-21T08:51:18;10.50;;;4.80;;
76228;SDS011;65021;53.174;18.160;2023-11-21T08:53:44;10.70;;;4.00;;
76228;SDS011;65021;53.174;18.160;2023-11-21T08:56:14;12.80;;;5.20;;
76228;SDS011;65021;53.174;18.160;2023-11-21T08:58:41;11.80;;;5.30;;
76228;SDS011;65021;53.174;18.160;2023-11-21T09:01:07;12.00;;;5.70;;
76228;SDS011;65021;53.174;18.160;2023-11-21T09:03:34;10.20;;;4.50;;
76228;SDS011;65021;53.174;18.160;2023-11-21T09:06:01;12.50;;;5.30;;
76228;SDS011;65021;53.174;18.160;2023-11-21T09:08:27;12.70;;;5.90;;
76228;SDS011;65021;53.174;18.160;2023-11-21T09:10:55;12.60;;;6.00;;
76228;SDS011;65021;53.174;18.160;2023-11-21T09:13:22;13.30;;;5.50;;
76228;SDS011;65021;53.174;18.160;2023-11-21T09:15:51;12.90;;;5.70;;
76228;SDS011;65021;53.174;18.160;2023-11-21T09:18:18;12.00;;;6.00;;
76228;SDS011;65021;53.174;18.160;2023-11-21T09:20:45;10.30;;;4.80;;
76228;SDS011;65021;53.174;18.160;2023-11-21T09:23:11;9.70;;;5.00;;
76228;SDS011;65021;53.174;18.160;2023-11-21T09:25:38;11.20;;;4.60;;
76228;SDS011;65021;53.174;18.160;2023-11-21T09:28:05;11.60;;;5.00;;
76228;SDS011;65021;53.174;18.160;2023-11-21T09:30:35;10.20;;;4.00;;
76228;SDS011;65021;53.174;18.160;2023-11-21T09:33:02;10.60;;;4.90;;
76228;SDS011;65021;53.174;18.160;2023-11-21T09:35:31;9.80;;;4.50;;
76228;SDS011;65021;53.174;18.160;2023-11-21T09:37:57;11.90;;;5.00;;
76228;SDS011;65021;53.174;18.160;2023-11-21T09:40:24;9.90;;;4.10;;
76228;SDS011;65021;53.174;18.160;2023-11-21T09:42:57;10.50;;;5.00;;
76228;SDS011;65021;53.174;18.160;2023-11-21T09:45:25;10.80;;;4.50;;
76228;SDS011;65021;53.174;18.160;2023-11-21T09:47:57;7.80;;;3.20;;
76228;SDS011;65021;53.174;18.160;2023-11-21T09:50:24;13.30;;;5.80;;
76228;SDS011;65021;53.174;18.160;2023-11-21T09:55:24;11.30;;;5.30;;
76228;SDS011;65021;53.174;18.160;2023-11-21T09:57:55;11.40;;;5.90;;
76228;SDS011;65021;53.174;18.160;2023-11-21T10:00:23;10.80;;;5.00;;
76228;SDS011;65021;53.174;18.160;2023-11-21T10:02:50;11.00;;;5.40;;
76228;SDS011;65021;53.174;18.160;2023-11-21T10:05:19;13.20;;;5.00;;
76228;SDS011;65021;53.174;18.160;2023-11-21T10:07:49;10.80;;;5.30;;
76228;SDS011;65021;53.174;18.160;2023-11-21T10:10:18;12.10;;;5.70;;
76228;SDS011;65021;53.174;18.160;2023-11-21T10:12:47;12.80;;;5.60;;
76228;SDS011;65021;53.174;18.160;2023-11-21T10:15:15;14.70;;;6.00;;
76228;SDS011;65021;53.174;18.160;2023-11-21T10:17:42;12.80;;;5.20;;
76228;SDS011;65021;53.174;18.160;2023-11-21T10:20:12;11.30;;;5.60;;
76228;SDS011;65021;53.174;18.160;2023-11-21T10:22:40;11.00;;;5.60;;
76228;SDS011;65021;53.174;18.160;2023-11-21T10:25:11;11.50;;;5.40;;
76228;SDS011;65021;53.174;18.160;2023-11-21T10:27:41;11.20;;;4.10;;
76228;SDS011;65021;53.174;18.160;2023-11-21T10:30:08;12.40;;;5.70;;
76228;SDS011;65021;53.174;18.160;2023-11-21T10:32:38;11.80;;;5.70;;
76228;SDS011;65021;53.174;18.160;2023-11-21T10:35:07;14.50;;;6.00;;
76228;SDS011;65021;53.174;18.160;2023-11-21T10:40:06;15.10;;;5.30;;
76228;SDS011;65021;53.174;18.160;2023-11-21T10:42:34;10.10;;;5.10;;
76228;SDS011;65021;53.174;18.160;2023-11-21T10:45:00;9.10;;;4.30;;
76228;SDS011;65021;53.174;18.160;2023-11-21T10:47:28;10.90;;;5.00;;
76228;SDS011;65021;53.174;18.160;2023-11-21T10:49:54;11.30;;;5.80;;
76228;SDS011;65021;53.174;18.160;2023-11-21T10:52:21;12.00;;;5.60;;
76228;SDS011;65021;53.174;18.160;2023-11-21T10:54:48;12.50;;;4.70;;
76228;SDS011;65021;53.174;18.160;2023-11-21T10:57:17;12.40;;;5.80;;
76228;SDS011;65021;53.174;18.160;2023-11-21T10:59:48;11.80;;;5.10;;
76228;SDS011;65021;53.174;18.160;2023-11-21T11:02:21;11.70;;;5.60;;
76228;SDS011;65021;53.174;18.160;2023-11-21T11:04:51;11.90;;;5.70;;
76228;SDS011;65021;53.174;18.160;2023-11-21T11:07:18;10.30;;;4.90;;
76228;SDS011;65021;53.174;18.160;2023-11-21T11:09:48;10.60;;;4.20;;
76228;SDS011;65021;53.174;18.160;2023-11-21T11:12:15;11.50;;;5.20;;
76228;SDS011;65021;53.174;18.160;2023-11-21T11:14:43;8.90;;;3.80;;
76228;SDS011;65021;53.174;18.160;2023-11-21T11:17:11;7.10;;;3.20;;
76228;SDS011;65021;53.174;18.160;2023-11-21T11:19:40;12.60;;;5.40;;
76228;SDS011;65021;53.174;18.160;2023-11-21T11:25:08;9.30;;;4.00;;
76228;SDS011;65021;53.174;18.160;2023-11-21T11:33:53;9.10;;;4.40;;
76228;SDS011;65021;53.174;18.160;2023-11-21T11:36:26;10.40;;;4.40;;
76228;SDS011;65021;53.174;18.160;2023-11-21T11:38:58;11.00;;;4.60;;
76228;SDS011;65021;53.174;18.160;2023-11-21T11:41:30;9.60;;;4.90;;
76228;SDS011;65021;53.174;18.160;2023-11-21T11:43:59;12.90;;;5.70;;
76228;SDS011;65021;53.174;18.160;2023-11-21T11:46:39;9.30;;;4.70;;
76228;SDS011;65021;53.174;18.160;2023-11-21T11:49:08;12.00;;;4.90;;
76228;SDS011;65021;53.174;18.160;2023-11-21T11:51:34;9.50;;;4.30;;
76228;SDS011;65021;53.174;18.160;2023-11-21T11:54:03;8.90;;;5.40;;
76228;SDS011;65021;53.174;18.160;2023-11-21T11:56:33;6.70;;;2.70;;
76228;SDS011;65021;53.174;18.160;2023-11-21T11:59:02;8.60;;;3.80;;
76228;SDS011;65021;53.174;18.160;2023-11-21T12:01:31;12.40;;;5.00;;
76228;SDS011;65021;53.174;18.160;2023-11-21T12:06:52;10.40;;;5.10;;
76228;SDS011;65021;53.174;18.160;2023-11-21T12:09:20;12.20;;;6.20;;
76228;SDS011;65021;53.174;18.160;2023-11-21T12:11:48;9.70;;;4.50;;
76228;SDS011;65021;53.174;18.160;2023-11-21T12:14:15;11.20;;;5.50;;
76228;SDS011;65021;53.174;18.160;2023-11-21T12:16:42;12.60;;;5.00;;
76228;SDS011;65021;53.174;18.160;2023-11-21T12:19:12;11.10;;;5.80;;
76228;SDS011;65021;53.174;18.160;2023-11-21T12:21:39;8.60;;;4.30;;
76228;SDS011;65021;53.174;18.160;2023-11-21T12:24:10;12.30;;;5.60;;
76228;SDS011;65021;53.174;18.160;2023-11-21T12:26:40;12.00;;;5.20;;
76228;SDS011;65021;53.174;18.160;2023-11-21T12:29:07;10.50;;;4.90;;
76228;SDS011;65021;53.174;18.160;2023-11-21T12:31:36;11.60;;;5.50;;
76228;SDS011;65021;53.174;18.160;2023-11-21T12:34:03;10.00;;;4.40;;
76228;SDS011;65021;53.174;18.160;2023-11-21T12:36:30;10.90;;;4.50;;
76228;SDS011;65021;53.174;18.160;2023-11-21T12:38:58;10.50;;;5.70;;
76228;SDS011;65021;53.174;18.160;2023-11-21T12:41:24;11.50;;;5.40;;
76228;SDS011;65021;53.174;18.160;2023-11-21T12:43:51;11.90;;;5.10;;
76228;SDS011;65021;53.174;18.160;2023-11-21T12:46:18;7.00;;;2.80;;
76228;SDS011;65021;53.174;18.160;2023-11-21T12:48:46;12.80;;;5.20;;
76228;SDS011;65021;53.174;18.160;2023-11-21T12:51:13;8.10;;;3.30;;
76228;SDS011;65021;53.174;18.160;2023-11-21T12:53:42;9.20;;;4.30;;
76228;SDS011;65021;53.174;18.160;2023-11-21T12:56:10;10.10;;;4.30;;
76228;SDS011;65021;53.174;18.160;2023-11-21T12:58:38;10.70;;;3.90;;
76228;SDS011;65021;53.174;18.160;2023-11-21T13:01:08;9.00;;;4.40;;
76228;SDS011;65021;53.174;18.160;2023-11-21T13:06:05;5.50;;;2.60;;
76228;SDS011;65021;53.174;18.160;2023-11-21T13:08:33;11.20;;;4.80;;
76228;SDS011;65021;53.174;18.160;2023-11-21T13:11:00;8.50;;;4.40;;
76228;SDS011;65021;53.174;18.160;2023-11-21T13:13:30;9.90;;;4.40;;
76228;SDS011;65021;53.174;18.160;2023-11-21T13:16:00;9.40;;;4.70;;
76228;SDS011;65021;53.174;18.160;2023-11-21T13:18:30;11.00;;;4.80;;
76228;SDS011;65021;53.174;18.160;2023-11-21T13:20:58;7.40;;;3.50;;
76228;SDS011;65021;53.174;18.160;2023-11-21T13:23:26;7.40;;;3.40;;
76228;SDS011;65021;53.174;18.160;2023-11-21T13:25:53;10.10;;;4.00;;
76228;SDS011;65021;53.174;18.160;2023-11-21T13:28:20;7.10;;;2.90;;
76228;SDS011;65021;53.174;18.160;2023-11-21T13:30:48;10.10;;;3.00;;
76228;SDS011;65021;53.174;18.160;2023-11-21T13:33:18;10.50;;;3.90;;
76228;SDS011;65021;53.174;18.160;2023-11-21T13:35:48;10.20;;;3.90;;
76228;SDS011;65021;53.174;18.160;2023-11-21T13:38:17;7.60;;;3.30;;
76228;SDS011;65021;53.174;18.160;2023-11-21T13:40:48;7.40;;;3.30;;
76228;SDS011;65021;53.174;18.160;2023-11-21T13:43:20;10.20;;;4.70;;
76228;SDS011;65021;53.174;18.160;2023-11-21T13:45:50;8.40;;;4.00;;
76228;SDS011;65021;53.174;18.160;2023-11-21T13:48:34;9.60;;;4.30;;
76228;SDS011;65021;53.174;18.160;2023-11-21T13:51:09;11.80;;;5.00;;
76228;SDS011;65021;53.174;18.160;2023-11-21T13:53:45;10.00;;;4.40;;
76228;SDS011;65021;53.174;18.160;2023-11-21T13:56:14;8.00;;;3.10;;
76228;SDS011;65021;53.174;18.160;2023-11-21T13:58:45;6.60;;;3.50;;
76228;SDS011;65021;53.174;18.160;2023-11-21T14:01:18;8.80;;;4.00;;
76228;SDS011;65021;53.174;18.160;2023-11-21T14:04:05;10.70;;;3.40;;
76228;SDS011;65021;53.174;18.160;2023-11-21T14:09:16;8.70;;;3.10;;
76228;SDS011;65021;53.174;18.160;2023-11-21T14:11:52;7.40;;;3.40;;
76228;SDS011;65021;53.174;18.160;2023-11-21T14:14:20;9.90;;;3.90;;
76228;SDS011;65021;53.174;18.160;2023-11-21T14:16:48;8.30;;;3.30;;
76228;SDS011;65021;53.174;18.160;2023-11-21T14:19:14;5.40;;;2.40;;
76228;SDS011;65021;53.174;18.160;2023-11-21T14:21:44;9.00;;;2.60;;
76228;SDS011;65021;53.174;18.160;2023-11-21T14:24:11;10.00;;;4.00;;
76228;SDS011;65021;53.174;18.160;2023-11-21T14:26:46;8.90;;;4.60;;
76228;SDS011;65021;53.174;18.160;2023-11-21T14:29:14;6.70;;;3.10;;
76228;SDS011;65021;53.174;18.160;2023-11-21T14:31:46;8.70;;;3.70;;
76228;SDS011;65021;53.174;18.160;2023-11-21T14:34:13;8.40;;;4.30;;
76228;SDS011;65021;53.174;18.160;2023-11-21T14:36:41;8.90;;;3.70;;
76228;SDS011;65021;53.174;18.160;2023-11-21T14:39:09;10.90;;;5.20;;
76228;SDS011;65021;53.174;18.160;2023-11-21T14:41:46;8.10;;;3.00;;
76228;SDS011;65021;53.174;18.160;2023-11-21T14:44:13;8.10;;;3.50;;
76228;SDS011;65021;53.174;18.160;2023-11-21T14:46:41;7.70;;;3.80;;
76228;SDS011;65021;53.174;18.160;2023-11-21T14:49:12;11.20;;;5.00;;